Time;durP1;ratioP1;P1;durP2;ratioP2;P2;SDS_P1;SDS_P2;PMS_P1;PMS_P2;Temp;Humidity;BMP_temperature;BMP_pressure;BME280_temperature;BME280_humidity;BME280_pressure;Samples;Min_cycle;Max_cycle;Signal;HPM_P1;HPM_P2
2021/04/17 00:00:12;;;;;;;6.47;4.05;;;3.50;99.90;;;;;;1948656;74;21125;-73
2021/04/17 00:02:39;;;;;;;5.05;3.60;;;3.60;99.90;;;;;;1948457;74;21033;-73
2021/04/17 00:05:05;;;;;;;3.87;3.02;;;3.40;99.90;;;;;;1948659;74;21060;-73
2021/04/17 00:07:31;;;;;;;4.45;3.72;;;3.40;99.90;;;;;;1948447;74;21067;-74
2021/04/17 00:09:57;;;;;;;6.45;3.35;;;3.30;99.90;;;;;;1948654;74;21129;-74
2021/04/17 00:12:23;;;;;;;7.12;3.45;;;3.30;99.90;;;;;;1948498;73;21154;-73
2021/04/17 00:14:49;;;;;;;9.10;4.20;;;3.40;99.90;;;;;;1948576;74;21451;-73
2021/04/17 00:17:15;;;;;;;12.37;4.03;;;3.30;99.90;;;;;;1948814;73;21420;-75
2021/04/17 00:19:42;;;;;;;10.32;3.47;;;3.30;99.90;;;;;;1948706;74;21524;-75
2021/04/17 00:22:08;;;;;;;4.78;3.65;;;3.30;99.90;;;;;;1948510;74;21037;-75
2021/04/17 00:24:34;;;;;;;3.87;3.47;;;3.20;99.90;;;;;;1948671;74;21076;-75
2021/04/17 00:27:02;;;;;;;4.78;3.77;;;3.20;99.90;;;;;;1948595;74;21130;-75
2021/04/17 00:29:28;;;;;;;5.30;3.72;;;3.20;99.90;;;;;;1948690;74;21572;-75
2021/04/17 00:31:54;;;;;;;5.62;3.70;;;3.30;99.90;;;;;;1948482;74;21107;-75
2021/04/17 00:34:20;;;;;;;5.53;3.87;;;3.40;99.90;;;;;;1948788;74;21089;-75
2021/04/17 00:36:46;;;;;;;6.10;3.62;;;3.30;99.90;;;;;;1948455;74;21064;-75
2021/04/17 00:39:12;;;;;;;5.17;3.77;;;3.30;99.90;;;;;;1948590;74;21056;-76
2021/04/17 00:41:39;;;;;;;5.28;3.80;;;3.30;99.90;;;;;;1948426;74;21037;-75
2021/04/17 00:44:05;;;;;;;9.10;3.98;;;3.30;99.90;;;;;;1948616;74;21065;-75
2021/04/17 00:46:31;;;;;;;7.10;3.58;;;3.20;99.90;;;;;;1948542;74;21038;-75
2021/04/17 00:48:57;;;;;;;5.70;3.87;;;3.20;99.90;;;;;;1948568;74;21472;-75
2021/04/17 00:51:23;;;;;;;5.05;4.10;;;3.10;99.90;;;;;;1948606;74;21518;-75
2021/04/17 00:53:50;;;;;;;5.12;3.95;;;3.10;99.90;;;;;;1948441;74;21130;-75
2021/04/17 00:56:16;;;;;;;5.65;3.85;;;3.20;99.90;;;;;;1948635;74;21097;-75
2021/04/17 00:58:42;;;;;;;7.67;4.87;;;3.10;99.90;;;;;;1948362;74;21056;-74
2021/04/17 01:01:08;;;;;;;9.60;4.83;;;3.10;99.90;;;;;;1948455;74;21138;-74
2021/04/17 01:03:35;;;;;;;5.65;4.33;;;3.20;99.90;;;;;;1948702;74;21144;-74
2021/04/17 01:06:01;;;;;;;6.95;4.12;;;3.20;99.90;;;;;;1948490;74;21030;-75
2021/04/17 01:08:27;;;;;;;5.17;3.92;;;3.10;99.90;;;;;;1948610;74;21146;-75
2021/04/17 01:10:53;;;;;;;7.70;5.30;;;3.10;99.90;;;;;;1948490;74;21057;-74
2021/04/17 01:13:19;;;;;;;9.75;4.25;;;3.10;99.90;;;;;;1948586;74;21037;-75
2021/04/17 01:15:45;;;;;;;7.67;5.05;;;3.10;99.90;;;;;;1948581;74;21064;-75
2021/04/17 01:18:11;;;;;;;6.03;4.75;;;3.20;99.90;;;;;;1948696;74;21093;-75
2021/04/17 01:20:38;;;;;;;7.37;4.80;;;3.30;99.90;;;;;;1948455;74;21135;-74
2021/04/17 01:23:04;;;;;;;7.75;4.30;;;3.30;99.90;;;;;;1948508;74;21111;-75
2021/04/17 01:25:30;;;;;;;5.83;3.80;;;3.30;99.90;;;;;;1948622;74;21056;-75
2021/04/17 01:27:57;;;;;;;8.55;4.30;;;3.20;99.90;;;;;;1948377;74;21130;-75
2021/04/17 01:30:23;;;;;;;5.28;4.35;;;3.20;99.90;;;;;;1948499;74;21057;-74
2021/04/17 01:32:49;;;;;;;4.05;3.65;;;3.20;99.90;;;;;;1948500;74;21061;-74
2021/04/17 01:35:15;;;;;;;6.33;4.47;;;3.20;99.90;;;;;;1948427;74;21073;-75
2021/04/17 01:37:42;;;;;;;7.08;5.20;;;3.20;99.90;;;;;;1948506;74;21064;-74
2021/04/17 01:40:09;;;;;;;5.62;4.62;;;3.30;99.90;;;;;;1949812;72;21076;-75
2021/04/17 01:42:35;;;;;;;13.08;5.83;;;3.30;99.90;;;;;;1948440;74;21174;-75
2021/04/17 01:45:01;;;;;;;11.22;4.65;;;3.40;99.90;;;;;;1948491;74;21181;-75
2021/04/17 01:47:27;;;;;;;6.22;4.85;;;3.40;99.90;;;;;;1948458;74;21060;-75
2021/04/17 01:49:53;;;;;;;7.10;4.53;;;3.40;99.90;;;;;;1948462;74;21052;-75
2021/04/17 01:52:19;;;;;;;15.80;4.87;;;3.40;99.90;;;;;;1948551;74;21061;-75
2021/04/17 01:54:45;;;;;;;5.97;4.67;;;3.40;99.90;;;;;;1948605;74;21052;-75
2021/04/17 01:57:11;;;;;;;6.80;4.78;;;3.40;99.90;;;;;;1948596;74;21029;-75
2021/04/17 01:59:38;;;;;;;7.60;4.78;;;3.30;99.90;;;;;;1948709;74;21053;-76
2021/04/17 02:02:04;;;;;;;7.55;4.78;;;3.20;99.90;;;;;;1948625;74;21061;-75
2021/04/17 02:04:30;;;;;;;7.62;5.10;;;3.20;99.90;;;;;;1948684;73;21143;-75
2021/04/17 02:06:56;;;;;;;6.37;4.15;;;3.30;99.90;;;;;;1948623;74;21216;-75
2021/04/17 02:09:22;;;;;;;9.48;5.45;;;3.20;99.90;;;;;;1948615;74;21141;-75
2021/04/17 02:11:48;;;;;;;8.13;5.17;;;3.20;99.90;;;;;;1948644;73;21068;-74
2021/04/17 02:14:14;;;;;;;7.03;4.53;;;3.20;99.90;;;;;;1948542;74;21464;-75
2021/04/17 02:16:40;;;;;;;8.85;4.92;;;3.10;99.90;;;;;;1948509;74;21417;-75
2021/04/17 02:19:06;;;;;;;9.87;5.60;;;3.30;99.90;;;;;;1948726;74;21512;-75
2021/04/17 02:21:33;;;;;;;10.25;5.80;;;3.30;99.90;;;;;;1948425;74;21060;-75
2021/04/17 02:23:59;;;;;;;6.20;4.65;;;3.40;99.90;;;;;;1948699;74;21090;-75
2021/04/17 02:26:25;;;;;;;10.55;6.28;;;3.40;99.90;;;;;;1948640;74;21104;-75
2021/04/17 02:28:51;;;;;;;15.45;5.97;;;3.40;99.90;;;;;;1948707;74;21093;-75
2021/04/17 02:31:17;;;;;;;7.97;5.35;;;3.50;99.90;;;;;;1948512;74;21138;-75
2021/04/17 02:33:43;;;;;;;11.48;5.37;;;3.50;99.90;;;;;;1948699;74;21162;-75
2021/04/17 02:36:09;;;;;;;12.20;5.75;;;3.40;99.90;;;;;;1948595;74;21037;-75
2021/04/17 02:38:36;;;;;;;7.55;5.10;;;3.30;99.90;;;;;;1948687;74;21500;-75
2021/04/17 02:41:02;;;;;;;10.50;4.90;;;3.40;99.90;;;;;;1948457;74;21558;-75
2021/04/17 02:43:28;;;;;;;7.57;5.53;;;3.50;99.90;;;;;;1948688;74;21505;-75
2021/04/17 02:45:54;;;;;;;8.18;5.28;;;3.50;99.90;;;;;;1948502;73;21056;-75
2021/04/17 02:48:20;;;;;;;7.30;5.33;;;3.50;99.90;;;;;;1948705;74;21085;-75
2021/04/17 02:50:46;;;;;;;10.88;5.45;;;3.40;99.90;;;;;;1948455;74;21057;-75
2021/04/17 02:53:12;;;;;;;6.35;5.05;;;3.30;99.90;;;;;;1948669;74;21033;-75
2021/04/17 02:55:38;;;;;;;7.45;5.42;;;3.40;99.90;;;;;;1948659;74;21069;-75
2021/04/17 02:58:04;;;;;;;5.95;4.53;;;3.50;99.90;;;;;;1948794;74;21073;-76
2021/04/17 03:00:31;;;;;;;11.95;6.00;;;3.50;99.90;;;;;;1948689;74;21049;-75
2021/04/17 03:02:57;;;;;;;5.85;4.50;;;3.50;99.90;;;;;;1948614;74;21064;-75
2021/04/17 03:05:23;;;;;;;12.65;4.80;;;3.50;99.90;;;;;;1948514;74;21064;-76
2021/04/17 03:07:49;;;;;;;10.00;5.85;;;3.50;99.90;;;;;;1948684;74;21079;-74
2021/04/17 03:10:15;;;;;;;8.58;5.58;;;3.50;99.90;;;;;;1948511;74;21099;-75
2021/04/17 03:12:41;;;;;;;8.10;5.42;;;3.40;99.90;;;;;;1948676;74;21187;-75
2021/04/17 03:15:08;;;;;;;7.22;5.28;;;3.50;99.90;;;;;;1948567;74;21460;-75
2021/04/17 03:17:34;;;;;;;8.08;5.35;;;3.30;99.90;;;;;;1948539;74;21129;-76
2021/04/17 03:20:00;;;;;;;7.85;5.17;;;3.30;99.90;;;;;;1948673;74;21081;-75
2021/04/17 03:22:26;;;;;;;9.60;5.37;;;3.30;99.90;;;;;;1948540;73;21060;-75
2021/04/17 03:24:52;;;;;;;7.40;5.58;;;3.40;99.90;;;;;;1948678;74;21089;-75
2021/04/17 03:27:19;;;;;;;5.00;4.50;;;3.30;99.90;;;;;;1948532;74;21065;-75
2021/04/17 03:29:46;;;;;;;7.15;5.42;;;3.30;99.90;;;;;;1948653;74;21095;-76
2021/04/17 03:32:12;;;;;;;6.22;5.17;;;3.30;99.90;;;;;;1948543;74;21033;-75
2021/04/17 03:34:38;;;;;;;11.27;6.00;;;3.30;99.90;;;;;;1948567;73;21060;-75
2021/04/17 03:37:04;;;;;;;26.80;5.67;;;3.00;99.90;;;;;;1948665;74;21077;-75
2021/04/17 03:39:30;;;;;;;8.08;5.35;;;3.10;99.90;;;;;;1948639;74;21130;-75
2021/04/17 03:41:56;;;;;;;8.48;5.67;;;2.90;99.90;;;;;;1948607;74;21133;-75
2021/04/17 03:44:22;;;;;;;6.45;5.17;;;2.90;99.90;;;;;;1948530;74;21480;-75
2021/04/17 03:46:48;;;;;;;10.88;5.20;;;2.90;99.90;;;;;;1947983;74;21069;-75
2021/04/17 03:49:15;;;;;;;7.53;5.33;;;2.80;99.90;;;;;;1948563;74;21084;-75
2021/04/17 03:51:41;;;;;;;12.15;5.00;;;2.90;99.90;;;;;;1948018;74;21045;-75
2021/04/17 03:54:07;;;;;;;9.10;5.33;;;2.80;99.90;;;;;;1948578;74;21056;-75
2021/04/17 03:56:33;;;;;;;8.28;5.20;;;2.80;99.90;;;;;;1948580;74;21130;-75
2021/04/17 03:59:01;;;;;;;10.15;6.12;;;2.70;99.90;;;;;;1948570;74;21127;-75
2021/04/17 04:01:27;;;;;;;8.33;5.85;;;2.70;99.90;;;;;;1948497;74;21116;-75
2021/04/17 04:03:56;;;;;;;6.10;4.62;;;2.90;99.90;;;;;;1948733;74;21085;-76
2021/04/17 04:06:21;;;;;;;5.60;4.55;;;2.90;99.90;;;;;;1948215;73;21084;-76
2021/04/17 04:08:47;;;;;;;6.65;4.75;;;2.80;99.90;;;;;;1948578;74;21056;-76
2021/04/17 04:11:13;;;;;;;7.70;4.85;;;2.80;99.90;;;;;;1948696;74;21058;-76
2021/04/17 04:13:41;;;;;;;6.53;4.37;;;2.80;99.90;;;;;;1947672;74;21131;-76
2021/04/17 04:16:07;;;;;;;11.38;4.78;;;2.80;99.90;;;;;;1950389;73;21081;-74
2021/04/17 04:18:33;;;;;;;9.00;5.37;;;2.70;99.90;;;;;;1946150;74;21098;-75
2021/04/17 04:20:59;;;;;;;14.75;4.58;;;2.70;99.90;;;;;;1948664;73;21148;-74
2021/04/17 04:23:25;;;;;;;7.97;5.15;;;2.60;99.90;;;;;;1948581;74;21111;-74
2021/04/17 04:25:52;;;;;;;10.93;5.40;;;2.60;99.90;;;;;;1948679;74;21105;-75
2021/04/17 04:28:18;;;;;;;9.60;5.15;;;2.60;99.90;;;;;;1948432;74;21067;-75
2021/04/17 04:30:44;;;;;;;6.90;4.85;;;2.50;99.90;;;;;;1948658;74;21510;-74
2021/04/17 04:33:10;;;;;;;6.37;4.60;;;2.50;99.90;;;;;;1948693;74;21464;-75
2021/04/17 04:35:36;;;;;;;6.42;4.53;;;2.40;99.90;;;;;;1948481;74;21496;-75
2021/04/17 04:38:02;;;;;;;6.53;4.67;;;2.50;99.90;;;;;;1948665;74;21056;-75
2021/04/17 04:40:28;;;;;;;7.58;5.12;;;2.50;99.90;;;;;;1948438;74;21130;-74
2021/04/17 04:42:54;;;;;;;7.22;4.55;;;2.40;99.90;;;;;;1948626;74;21068;-74
2021/04/17 04:45:20;;;;;;;8.08;4.47;;;2.40;99.90;;;;;;1948458;74;21134;-74
2021/04/17 04:47:47;;;;;;;7.90;4.35;;;2.40;99.90;;;;;;1948644;74;21065;-75
2021/04/17 04:50:13;;;;;;;9.08;4.78;;;2.40;99.90;;;;;;1948554;74;21058;-75
2021/04/17 04:52:39;;;;;;;4.92;3.98;;;2.40;99.90;;;;;;1948543;74;21106;-75
2021/04/17 04:55:05;;;;;;;10.08;4.20;;;2.40;99.90;;;;;;1948655;74;21060;-75
2021/04/17 04:57:31;;;;;;;9.00;4.95;;;2.40;99.90;;;;;;1948420;74;21044;-74
2021/04/17 04:59:57;;;;;;;5.08;4.08;;;2.50;99.90;;;;;;1948656;74;21076;-75
2021/04/17 05:02:23;;;;;;;6.87;4.50;;;2.50;99.90;;;;;;1948397;74;21565;-75
2021/04/17 05:04:49;;;;;;;7.35;4.58;;;2.50;99.90;;;;;;1948424;74;21537;-75
2021/04/17 05:07:16;;;;;;;11.30;4.33;;;2.60;99.90;;;;;;1948655;74;21520;-75
2021/04/17 05:09:42;;;;;;;7.97;4.78;;;2.50;99.90;;;;;;1948427;74;21037;-76
2021/04/17 05:14:53;;;;;;;7.45;5.10;;;2.70;99.90;;;;;;1988391;71;21121;-75
2021/04/17 05:17:19;;;;;;;5.87;4.45;;;2.60;99.90;;;;;;1950612;73;21106;-75
2021/04/17 05:19:45;;;;;;;6.83;4.47;;;2.60;99.90;;;;;;1987568;72;21124;-75
2021/04/17 05:22:11;;;;;;;6.67;4.50;;;2.60;99.90;;;;;;1997398;71;21011;-75
2021/04/17 05:24:38;;;;;;;5.50;4.42;;;2.60;99.90;;;;;;1990905;71;21068;-75
2021/04/17 05:27:04;;;;;;;7.78;4.62;;;2.60;99.90;;;;;;1990955;71;21027;-75
2021/04/17 05:29:30;;;;;;;7.50;5.08;;;2.70;99.90;;;;;;1991017;72;21098;-75
2021/04/17 05:31:56;;;;;;;6.87;4.20;;;2.70;99.90;;;;;;1991122;72;21439;-75
2021/04/17 05:34:22;;;;;;;5.87;4.90;;;2.80;99.90;;;;;;1990901;72;21613;-75
2021/04/17 05:36:48;;;;;;;8.30;5.08;;;2.80;99.90;;;;;;1991123;72;21400;-75
2021/04/17 05:39:14;;;;;;;7.12;4.67;;;2.80;99.90;;;;;;1990904;72;21068;-75
2021/04/17 05:41:41;;;;;;;12.03;4.83;;;2.80;99.90;;;;;;1991080;72;21112;-75
2021/04/17 05:44:13;;;;;;;9.85;4.97;;;2.80;99.90;;;;;;1991007;72;21112;-74
2021/04/17 05:46:39;;;;;;;7.05;5.17;;;2.90;99.90;;;;;;1950538;73;21027;-75
2021/04/17 05:49:05;;;;;;;15.08;5.03;;;2.90;99.90;;;;;;1987573;72;21041;-74
2021/04/17 05:51:31;;;;;;;8.08;5.37;;;3.00;99.90;;;;;;1997554;72;21100;-74
2021/04/17 05:53:57;;;;;;;10.25;5.05;;;3.10;99.90;;;;;;1991027;71;21038;-74
2021/04/17 05:56:23;;;;;;;8.05;5.08;;;3.30;99.90;;;;;;1991150;71;21035;-75
2021/04/17 05:58:50;;;;;;;8.85;4.80;;;3.30;99.90;;;;;;1990925;72;21184;-76
2021/04/17 06:01:16;;;;;;;7.95;4.95;;;3.30;99.90;;;;;;1992195;71;21032;-76
2021/04/17 06:03:42;;;;;;;9.75;5.22;;;3.40;99.90;;;;;;1990931;72;21079;-76
2021/04/17 06:06:08;;;;;;;8.35;5.55;;;3.40;99.90;;;;;;1991014;72;21007;-76
2021/04/17 06:08:34;;;;;;;8.48;5.62;;;3.40;99.90;;;;;;1991047;72;21051;-75
2021/04/17 06:11:00;;;;;;;12.78;5.08;;;3.40;99.90;;;;;;1991045;71;21156;-75
2021/04/17 06:13:26;;;;;;;6.37;5.08;;;3.50;99.90;;;;;;1994301;71;21050;-75
2021/04/17 06:15:52;;;;;;;8.28;5.35;;;3.60;99.90;;;;;;1950742;73;21123;-75
2021/04/17 06:18:19;;;;;;;7.78;5.00;;;3.70;99.90;;;;;;1987567;72;21491;-74
2021/04/17 06:20:45;;;;;;;9.33;5.85;;;3.80;99.90;;;;;;1997564;72;21532;-75
2021/04/17 06:23:11;;;;;;;10.35;5.92;;;3.80;99.90;;;;;;1950591;73;21538;-75
2021/04/17 06:25:37;;;;;;;12.47;5.83;;;3.90;99.90;;;;;;1950567;73;21112;-75
2021/04/17 06:28:03;;;;;;;18.77;5.90;;;4.10;99.90;;;;;;1987569;72;21050;-74
2021/04/17 06:30:29;;;;;;;7.90;5.42;;;4.10;99.90;;;;;;1997523;72;21046;-75
2021/04/17 06:32:55;;;;;;;8.68;5.58;;;4.30;99.90;;;;;;2004559;71;21010;-75
2021/04/17 06:35:21;;;;;;;9.75;4.92;;;4.40;99.90;;;;;;1952050;72;21152;-75
2021/04/17 06:37:48;;;;;;;13.95;5.55;;;4.50;99.90;;;;;;1987659;72;21054;-74
2021/04/17 06:40:14;;;;;;;8.83;6.12;;;4.70;99.90;;;;;;1997682;71;21016;-73
2021/04/17 06:42:40;;;;;;;11.18;6.58;;;4.60;99.90;;;;;;1950681;73;21117;-74
2021/04/17 06:45:06;;;;;;;8.53;5.75;;;4.70;99.90;;;;;;1950622;73;21054;-74
2021/04/17 06:47:32;;;;;;;11.00;6.10;;;4.90;99.90;;;;;;1987575;72;21051;-74
2021/04/17 06:49:58;;;;;;;12.13;5.58;;;4.80;99.90;;;;;;1997641;71;21051;-74
2021/04/17 06:52:24;;;;;;;11.05;6.30;;;4.60;99.90;;;;;;1950596;73;21070;-73
2021/04/17 06:54:50;;;;;;;8.48;5.35;;;4.70;99.90;;;;;;1950478;73;21454;-73
2021/04/17 06:57:17;;;;;;;9.45;5.92;;;4.70;99.90;;;;;;1987671;72;21480;-73
2021/04/17 06:59:43;;;;;;;11.70;6.00;;;4.80;99.90;;;;;;1997441;72;21108;-73
2021/04/17 07:02:09;;;;;;;7.45;5.17;;;4.90;99.90;;;;;;1950709;73;21062;-75
2021/04/17 07:04:35;;;;;;;10.45;6.08;;;5.00;99.90;;;;;;1987414;72;21050;-74
2021/04/17 07:07:02;;;;;;;7.15;5.33;;;4.90;99.90;;;;;;1997637;71;21124;-74
2021/04/17 07:09:28;;;;;;;12.03;6.03;;;5.20;99.90;;;;;;1991066;71;21051;-73
2021/04/17 07:11:54;;;;;;;9.93;6.25;;;5.50;99.90;;;;;;1990877;72;21075;-73
2021/04/17 07:14:20;;;;;;;8.73;6.30;;;5.40;99.90;;;;;;1950686;73;21115;-73
2021/04/17 07:16:47;;;;;;;10.60;6.62;;;5.70;99.90;;;;;;1950440;73;21070;-74
2021/04/17 07:19:13;;;;;;;10.72;6.42;;;5.90;99.90;;;;;;1987662;72;21039;-73
2021/04/17 07:21:39;;;;;;;10.53;6.28;;;6.10;99.90;;;;;;1997405;72;21467;-73
2021/04/17 07:24:05;;;;;;;9.53;6.28;;;6.20;99.90;;;;;;1950502;73;21454;-73
2021/04/17 07:26:31;;;;;;;10.40;5.72;;;6.30;99.90;;;;;;1987646;72;21054;-72
2021/04/17 07:28:58;;;;;;;10.35;6.65;;;6.40;99.90;;;;;;1997700;71;21019;-72
2021/04/17 07:31:24;;;;;;;9.70;6.40;;;6.00;99.90;;;;;;1950792;73;21066;-71
2021/04/17 07:33:51;;;;;;;11.90;7.25;;;5.50;99.90;;;;;;1987571;72;21579;-71
2021/04/17 07:36:17;;;;;;;11.28;6.67;;;5.70;99.90;;;;;;1997388;71;21038;-72
2021/04/17 07:38:43;;;;;;;9.83;6.65;;;5.90;99.90;;;;;;1950669;73;21054;-72
2021/04/17 07:41:09;;;;;;;9.53;6.33;;;6.10;99.90;;;;;;1987522;72;21042;-72
2021/04/17 07:43:35;;;;;;;11.45;6.03;;;6.30;99.90;;;;;;1997501;72;21050;-72
2021/04/17 07:46:02;;;;;;;12.37;6.70;;;6.40;99.90;;;;;;1950530;73;21020;-72
2021/04/17 07:48:29;;;;;;;10.95;6.53;;;6.30;99.90;;;;;;1950566;73;21050;-73
2021/04/17 07:50:55;;;;;;;10.05;6.08;;;6.70;99.90;;;;;;1987549;72;21051;-73
2021/04/17 07:53:21;;;;;;;8.95;6.62;;;6.90;99.90;;;;;;1997623;72;21096;-73
2021/04/17 07:55:47;;;;;;;12.70;6.90;;;6.80;99.90;;;;;;1991063;71;21039;-72
2021/04/17 07:58:13;;;;;;;10.45;6.72;;;6.50;99.90;;;;;;1991048;72;21031;-74
2021/04/17 08:00:39;;;;;;;9.65;6.65;;;6.80;99.90;;;;;;1991017;72;21116;-73
2021/04/17 08:03:06;;;;;;;10.40;6.42;;;7.50;99.90;;;;;;1990978;72;21076;-72
2021/04/17 08:05:32;;;;;;;13.30;6.90;;;7.90;99.90;;;;;;1990889;72;21525;-73
2021/04/17 08:07:58;;;;;;;11.15;6.92;;;8.20;99.90;;;;;;1990880;72;21129;-73
2021/04/17 08:10:24;;;;;;;11.57;6.90;;;8.20;99.90;;;;;;1991066;72;21035;-73
2021/04/17 08:12:50;;;;;;;18.30;6.60;;;8.70;99.90;;;;;;1990754;72;21059;-72
2021/04/17 08:15:16;;;;;;;13.05;6.78;;;9.10;99.90;;;;;;1950543;73;21051;-73
2021/04/17 08:17:42;;;;;;;13.32;6.62;;;9.50;99.90;;;;;;1950642;73;21058;-73
2021/04/17 08:20:09;;;;;;;11.65;6.58;;;9.60;99.90;;;;;;1987391;72;21116;-71
2021/04/17 08:22:35;;;;;;;12.73;6.47;;;8.50;99.90;;;;;;1997580;72;21043;-73
2021/04/17 08:25:01;;;;;;;8.70;6.33;;;8.60;99.90;;;;;;1991116;71;21019;-76
2021/04/17 08:27:27;;;;;;;10.65;6.33;;;7.70;99.90;;;;;;1991234;72;21408;-75
2021/04/17 08:29:54;;;;;;;13.43;6.62;;;8.10;99.90;;;;;;1990945;72;21507;-74
2021/04/17 08:32:20;;;;;;;11.63;6.42;;;8.60;99.90;;;;;;1990896;72;21119;-74
2021/04/17 08:34:46;;;;;;;12.40;6.65;;;8.90;99.90;;;;;;1990963;71;21121;-75
2021/04/17 08:37:12;;;;;;;13.13;6.53;;;9.10;99.90;;;;;;1990992;71;21114;-74
2021/04/17 08:39:40;;;;;;;10.55;5.75;;;9.40;99.90;;;;;;1988137;71;21143;-74
2021/04/17 08:42:06;;;;;;;9.80;5.72;;;9.60;99.90;;;;;;1987858;71;21093;-74
2021/04/17 08:44:32;;;;;;;12.35;5.70;;;9.40;99.90;;;;;;1987816;72;21143;-74
2021/04/17 08:46:58;;;;;;;12.85;6.47;;;9.50;99.90;;;;;;1987925;72;21042;-73
2021/04/17 08:49:24;;;;;;;10.23;5.95;;;9.60;99.90;;;;;;1987822;72;21069;-75
2021/04/17 08:51:50;;;;;;;8.98;5.58;;;10.00;99.90;;;;;;1987899;72;21129;-75
2021/04/17 08:54:17;;;;;;;9.88;5.35;;;9.90;99.90;;;;;;1987639;72;21211;-74
2021/04/17 08:56:43;;;;;;;12.37;5.42;;;10.10;99.90;;;;;;1987867;72;21509;-74
2021/04/17 08:59:09;;;;;;;12.65;5.95;;;9.60;99.90;;;;;;1989146;72;21517;-74
2021/04/17 09:01:35;;;;;;;12.95;5.70;;;9.60;99.90;;;;;;1977172;72;21537;-76
2021/04/17 09:04:03;;;;;;;10.32;6.15;;;9.00;99.90;;;;;;1987769;71;21512;-76
2021/04/17 09:06:29;;;;;;;11.88;5.72;;;9.10;99.90;;;;;;1987767;71;21081;-75
2021/04/17 09:08:55;;;;;;;8.05;5.33;;;9.60;99.90;;;;;;1987787;72;21140;-76
2021/04/17 09:11:21;;;;;;;7.90;5.45;;;9.50;99.90;;;;;;1989030;72;21130;-75
2021/04/17 09:13:47;;;;;;;9.40;5.83;;;9.60;99.90;;;;;;1987905;72;21486;-75
2021/04/17 09:16:13;;;;;;;10.45;5.60;;;9.50;99.90;;;;;;1988925;71;21476;-73
2021/04/17 09:18:39;;;;;;;7.58;4.53;;;9.80;99.90;;;;;;1988246;72;21481;-74
2021/04/17 09:21:07;;;;;;;6.00;3.70;;;9.90;99.90;;;;;;1988473;72;21072;-74
2021/04/17 09:23:33;;;;;;;7.12;3.83;;;9.80;99.90;;;;;;1990768;71;21056;-73
2021/04/17 09:25:59;;;;;;;8.43;4.22;;;9.60;99.90;;;;;;1988453;72;21106;-73
2021/04/17 09:28:25;;;;;;;10.28;3.52;;;9.50;99.90;;;;;;1987709;72;21065;-73
2021/04/17 09:30:51;;;;;;;14.05;4.05;;;9.70;99.90;;;;;;1987774;72;21025;-69
2021/04/17 09:33:17;;;;;;;9.88;3.85;;;9.90;99.90;;;;;;1987792;71;21081;-71
2021/04/17 09:35:44;;;;;;;5.75;3.72;;;10.10;99.90;;;;;;1987752;72;21512;-72
2021/04/17 09:38:10;;;;;;;9.63;4.70;;;9.70;99.90;;;;;;1987740;71;21492;-71
2021/04/17 09:40:36;;;;;;;5.58;3.22;;;9.60;99.90;;;;;;1987837;72;21453;-71
2021/04/17 09:43:02;;;;;;;5.15;3.65;;;9.50;99.90;;;;;;1987797;72;21147;-71
2021/04/17 09:45:28;;;;;;;6.78;3.30;;;9.70;99.90;;;;;;1987603;72;21118;-71
2021/04/17 09:47:54;;;;;;;6.17;3.65;;;10.20;99.90;;;;;;1987875;72;21085;-71
2021/04/17 09:50:20;;;;;;;6.60;3.45;;;10.50;99.90;;;;;;1987674;71;21092;-74
2021/04/17 09:52:46;;;;;;;7.92;3.90;;;10.50;99.90;;;;;;1987868;71;21090;-74
2021/04/17 09:55:13;;;;;;;9.75;5.22;;;10.20;99.90;;;;;;1987651;72;21051;-74
2021/04/17 09:57:39;;;;;;;7.65;3.62;;;9.90;99.90;;;;;;1987852;72;21086;-73
2021/04/17 10:00:05;;;;;;;7.20;3.30;;;10.20;99.90;;;;;;1987637;72;21122;-72
2021/04/17 10:02:31;;;;;;;6.80;3.77;;;10.00;99.90;;;;;;1987735;72;21165;-73
2021/04/17 10:05:02;;;;;;;7.70;3.95;;;9.80;99.90;;;;;;1987767;72;21070;-73
2021/04/17 10:07:28;;;;;;;6.22;4.03;;;9.40;99.90;;;;;;1987664;71;21068;-74
2021/04/17 10:09:54;;;;;;;9.95;2.90;;;9.50;99.90;;;;;;1987890;71;21505;-74
2021/04/17 10:12:20;;;;;;;6.70;3.12;;;9.80;99.90;;;;;;1987760;72;21583;-77
2021/04/17 10:14:48;;;;;;;6.05;2.92;;;9.90;99.90;;;;;;1987841;72;21617;-78
2021/04/17 10:17:14;;;;;;;4.85;2.95;;;9.80;99.90;;;;;;1987887;72;21077;-73
2021/04/17 10:19:40;;;;;;;5.42;3.00;;;9.50;99.90;;;;;;1987902;72;21113;-73
2021/04/17 10:22:07;;;;;;;5.28;3.25;;;9.30;99.90;;;;;;1987882;71;21082;-74
2021/04/17 10:24:33;;;;;;;7.12;3.00;;;9.50;99.90;;;;;;1987879;72;21089;-73
2021/04/17 10:26:59;;;;;;;4.92;2.98;;;9.70;99.90;;;;;;1987886;72;21070;-74
2021/04/17 10:29:25;;;;;;;4.12;3.02;;;9.70;99.90;;;;;;1987896;72;21155;-73
2021/04/17 10:31:51;;;;;;;4.80;2.85;;;9.60;99.90;;;;;;1987976;72;21073;-73
2021/04/17 10:34:17;;;;;;;4.95;2.87;;;9.70;99.90;;;;;;1987951;72;21151;-74
2021/04/17 10:36:43;;;;;;;5.47;2.70;;;10.10;99.90;;;;;;1987939;72;21049;-74
2021/04/17 10:39:11;;;;;;;4.30;2.83;;;10.50;99.90;;;;;;1987899;72;21104;-74
2021/04/17 10:41:37;;;;;;;6.70;3.02;;;10.40;99.90;;;;;;1987956;72;21077;-74
2021/04/17 10:44:03;;;;;;;5.75;3.25;;;11.00;99.90;;;;;;1987918;72;21089;-74
2021/04/17 10:46:29;;;;;;;5.35;2.95;;;11.40;99.90;;;;;;1987770;72;21118;-74
2021/04/17 10:48:56;;;;;;;4.83;2.80;;;12.00;99.90;;;;;;1987973;71;21081;-74
2021/04/17 10:51:22;;;;;;;4.72;3.25;;;12.80;99.90;;;;;;1988284;72;21061;-74
2021/04/17 10:53:49;;;;;;;7.62;3.55;;;12.90;99.90;;;;;;1987963;72;21074;-74
2021/04/17 10:56:15;;;;;;;5.50;3.27;;;12.40;99.90;;;;;;1987962;72;21081;-74
2021/04/17 10:58:41;;;;;;;9.23;3.40;;;11.60;99.90;;;;;;1987906;72;21117;-74
2021/04/17 11:01:08;;;;;;;4.58;2.98;;;11.90;99.90;;;;;;1987864;72;21029;-73
2021/04/17 11:03:34;;;;;;;5.95;2.90;;;12.00;99.90;;;;;;1988009;72;21052;-74
2021/04/17 11:06:00;;;;;;;5.03;3.00;;;11.80;99.90;;;;;;1988049;72;21053;-74
2021/04/17 11:08:26;;;;;;;4.80;2.80;;;11.20;99.90;;;;;;1988067;72;21053;-74
2021/04/17 11:10:52;;;;;;;4.75;2.30;;;11.50;99.90;;;;;;1987941;72;21497;-73
2021/04/17 11:13:18;;;;;;;5.75;2.62;;;11.30;99.90;;;;;;1987849;72;21480;-73
2021/04/17 11:15:45;;;;;;;9.15;2.50;;;11.70;99.90;;;;;;1989560;72;21516;-74
2021/04/17 11:18:11;;;;;;;6.03;2.83;;;11.70;99.90;;;;;;1988676;72;21120;-73
2021/04/17 11:20:37;;;;;;;2.45;2.12;;;11.80;99.90;;;;;;1989781;72;21127;-73
2021/04/17 11:23:05;;;;;;;2.95;2.10;;;11.80;99.90;;;;;;1988097;72;21105;-73
2021/04/17 11:25:31;;;;;;;3.27;2.05;;;11.20;99.90;;;;;;1987943;72;21117;-74
2021/04/17 11:27:57;;;;;;;3.67;2.60;;;11.40;99.90;;;;;;1987886;72;21155;-73
2021/04/17 11:30:23;;;;;;;5.92;2.98;;;11.60;99.90;;;;;;1987891;71;21077;-75
2021/04/17 11:32:49;;;;;;;5.42;2.42;;;12.00;99.90;;;;;;1987869;72;21085;-74
2021/04/17 11:35:16;;;;;;;5.12;2.65;;;12.60;99.90;;;;;;1987973;71;21074;-69
2021/04/17 11:37:42;;;;;;;5.05;2.20;;;12.20;99.90;;;;;;1987981;72;21158;-68
2021/04/17 11:40:09;;;;;;;5.03;2.35;;;12.00;99.90;;;;;;1987847;72;21513;-69
2021/04/17 11:42:35;;;;;;;4.05;2.50;;;12.10;99.90;;;;;;1987827;72;21557;-71
2021/04/17 11:45:01;;;;;;;5.00;2.55;;;12.40;99.90;;;;;;1987850;72;21121;-73
2021/04/17 11:47:27;;;;;;;3.50;2.30;;;12.80;99.90;;;;;;1987903;71;21088;-74
2021/04/17 11:49:53;;;;;;;4.33;2.33;;;12.90;99.90;;;;;;1987986;72;21073;-76
2021/04/17 11:52:21;;;;;;;4.08;2.90;;;13.10;99.90;;;;;;1987876;72;21492;-75
2021/04/17 11:54:47;;;;;;;3.52;2.60;;;13.10;99.90;;;;;;1987879;72;21473;-74
2021/04/17 11:57:13;;;;;;;5.05;2.50;;;13.10;99.90;;;;;;1987878;72;21158;-75
2021/04/17 11:59:40;;;;;;;5.40;2.77;;;13.20;99.90;;;;;;1987887;72;21074;-75
2021/04/17 12:02:06;;;;;;;3.60;2.30;;;13.30;99.90;;;;;;1992102;70;21498;-74
2021/04/17 12:04:32;;;;;;;5.65;2.98;;;13.20;99.90;;;;;;1988534;70;21480;-78
2021/04/17 12:06:58;;;;;;;4.92;2.75;;;13.90;99.90;;;;;;1987815;72;21528;-76
2021/04/17 12:09:25;;;;;;;2.45;1.77;;;13.60;99.90;;;;;;1987903;71;21510;-74
2021/04/17 12:11:51;;;;;;;5.55;1.92;;;13.60;99.90;;;;;;1987709;72;21539;-74
2021/04/17 12:14:17;;;;;;;3.72;2.25;;;13.90;99.50;;;;;;1987822;72;21073;-74
2021/04/17 12:16:43;;;;;;;2.72;2.10;;;13.60;98.60;;;;;;1987721;72;21044;-78
2021/04/17 12:19:09;;;;;;;3.70;2.50;;;12.40;99.90;;;;;;1987970;72;21058;-75
2021/04/17 12:21:35;;;;;;;4.28;2.20;;;11.80;99.90;;;;;;1988838;71;21134;-75
2021/04/17 12:24:01;;;;;;;3.70;2.35;;;11.80;99.90;;;;;;1987868;72;21136;-75
2021/04/17 12:26:27;;;;;;;3.12;2.40;;;11.90;99.90;;;;;;1987875;72;21073;-75
2021/04/17 12:28:54;;;;;;;11.03;2.12;;;12.00;99.90;;;;;;1987904;72;21066;-77
2021/04/17 12:31:20;;;;;;;3.08;1.95;;;12.00;99.90;;;;;;1987870;72;21069;-75
2021/04/17 12:33:47;;;;;;;4.87;2.15;;;12.10;99.90;;;;;;1987893;72;21160;-85
2021/04/17 12:36:13;;;;;;;5.83;2.85;;;12.10;99.90;;;;;;1987795;71;21586;-75
2021/04/17 12:38:39;;;;;;;4.75;2.62;;;12.40;99.90;;;;;;1987841;72;21033;-75
2021/04/17 12:41:05;;;;;;;3.70;1.85;;;12.60;99.90;;;;;;1987842;72;21593;-74
2021/04/17 12:43:31;;;;;;;4.85;2.47;;;12.40;99.90;;;;;;1988106;72;21536;-75
2021/04/17 12:45:57;;;;;;;5.20;2.70;;;11.90;99.90;;;;;;1987735;72;21526;-75
2021/04/17 12:48:23;;;;;;;3.52;2.15;;;11.70;99.90;;;;;;1987968;72;21074;-73